sensor_id;sensor_type;location;lat;lon;timestamp;P1;durP1;ratioP1;P2;durP2;ratioP2
14923;SDS011;7554;43.600;1.480;2023-04-06T00:00:54;4.07;;;2.90;;
14923;SDS011;7554;43.600;1.480;2023-04-06T00:03:21;3.67;;;2.37;;
14923;SDS011;7554;43.600;1.480;2023-04-06T00:05:49;4.40;;;3.10;;
14923;SDS011;7554;43.600;1.480;2023-04-06T00:08:17;7.40;;;3.33;;
14923;SDS011;7554;43.600;1.480;2023-04-06T00:10:48;4.27;;;2.90;;
14923;SDS011;7554;43.600;1.480;2023-04-06T00:13:15;4.47;;;2.60;;
14923;SDS011;7554;43.600;1.480;2023-04-06T00:15:42;4.33;;;2.70;;
14923;SDS011;7554;43.600;1.480;2023-04-06T00:18:10;7.83;;;3.10;;
14923;SDS011;7554;43.600;1.480;2023-04-06T00:20:37;4.67;;;3.30;;
14923;SDS011;7554;43.600;1.480;2023-04-06T00:23:05;5.40;;;3.00;;
14923;SDS011;7554;43.600;1.480;2023-04-06T00:25:32;5.00;;;2.80;;
14923;SDS011;7554;43.600;1.480;2023-04-06T00:28:01;4.33;;;3.00;;
14923;SDS011;7554;43.600;1.480;2023-04-06T00:30:29;5.90;;;3.67;;
14923;SDS011;7554;43.600;1.480;2023-04-06T00:32:57;5.03;;;3.70;;
14923;SDS011;7554;43.600;1.480;2023-04-06T00:35:24;5.30;;;3.23;;
14923;SDS011;7554;43.600;1.480;2023-04-06T00:37:51;6.10;;;3.57;;
14923;SDS011;7554;43.600;1.480;2023-04-06T00:40:19;4.67;;;3.20;;
14923;SDS011;7554;43.600;1.480;2023-04-06T00:42:46;4.77;;;3.43;;
14923;SDS011;7554;43.600;1.480;2023-04-06T00:45:15;5.30;;;3.53;;
14923;SDS011;7554;43.600;1.480;2023-04-06T00:47:42;5.73;;;3.80;;
14923;SDS011;7554;43.600;1.480;2023-04-06T00:50:10;8.90;;;3.43;;
14923;SDS011;7554;43.600;1.480;2023-04-06T00:52:37;4.67;;;3.27;;
14923;SDS011;7554;43.600;1.480;2023-04-06T00:55:05;6.20;;;3.30;;
14923;SDS011;7554;43.600;1.480;2023-04-06T00:57:33;4.60;;;3.30;;
14923;SDS011;7554;43.600;1.480;2023-04-06T01:00:00;4.37;;;2.90;;
14923;SDS011;7554;43.600;1.480;2023-04-06T01:02:30;3.90;;;2.53;;
14923;SDS011;7554;43.600;1.480;2023-04-06T01:04:57;4.87;;;3.13;;
14923;SDS011;7554;43.600;1.480;2023-04-06T01:07:25;6.20;;;3.37;;
14923;SDS011;7554;43.600;1.480;2023-04-06T01:09:53;4.77;;;2.90;;
14923;SDS011;7554;43.600;1.480;2023-04-06T01:12:20;5.97;;;3.53;;
14923;SDS011;7554;43.600;1.480;2023-04-06T01:14:47;5.03;;;3.47;;
14923;SDS011;7554;43.600;1.480;2023-04-06T01:17:15;5.17;;;3.30;;
14923;SDS011;7554;43.600;1.480;2023-04-06T01:19:44;5.47;;;3.60;;
14923;SDS011;7554;43.600;1.480;2023-04-06T01:22:15;6.67;;;3.70;;
14923;SDS011;7554;43.600;1.480;2023-04-06T01:24:42;5.33;;;3.57;;
14923;SDS011;7554;43.600;1.480;2023-04-06T01:27:10;6.60;;;3.60;;
14923;SDS011;7554;43.600;1.480;2023-04-06T01:29:37;5.50;;;3.43;;
14923;SDS011;7554;43.600;1.480;2023-04-06T01:32:06;7.00;;;3.77;;
14923;SDS011;7554;43.600;1.480;2023-04-06T01:34:33;6.60;;;4.30;;
14923;SDS011;7554;43.600;1.480;2023-04-06T01:37:01;4.67;;;3.30;;
14923;SDS011;7554;43.600;1.480;2023-04-06T01:39:30;7.00;;;3.70;;
14923;SDS011;7554;43.600;1.480;2023-04-06T01:41:57;4.43;;;3.10;;
14923;SDS011;7554;43.600;1.480;2023-04-06T01:44:24;5.43;;;3.33;;
14923;SDS011;7554;43.600;1.480;2023-04-06T01:46:52;5.40;;;3.60;;
14923;SDS011;7554;43.600;1.480;2023-04-06T01:49:19;6.23;;;4.23;;
14923;SDS011;7554;43.600;1.480;2023-04-06T01:51:46;5.43;;;3.80;;
14923;SDS011;7554;43.600;1.480;2023-04-06T01:54:14;5.57;;;3.57;;
14923;SDS011;7554;43.600;1.480;2023-04-06T01:56:42;7.63;;;4.20;;
14923;SDS011;7554;43.600;1.480;2023-04-06T01:59:10;7.93;;;4.07;;
14923;SDS011;7554;43.600;1.480;2023-04-06T02:01:38;6.70;;;3.87;;
14923;SDS011;7554;43.600;1.480;2023-04-06T02:04:05;7.80;;;4.10;;
14923;SDS011;7554;43.600;1.480;2023-04-06T02:06:32;5.83;;;3.60;;
14923;SDS011;7554;43.600;1.480;2023-04-06T02:09:00;5.53;;;3.93;;
14923;SDS011;7554;43.600;1.480;2023-04-06T02:11:27;4.10;;;3.27;;
14923;SDS011;7554;43.600;1.480;2023-04-06T02:13:56;5.43;;;4.07;;
14923;SDS011;7554;43.600;1.480;2023-04-06T02:16:25;5.63;;;3.90;;
14923;SDS011;7554;43.600;1.480;2023-04-06T02:18:53;4.80;;;3.20;;
14923;SDS011;7554;43.600;1.480;2023-04-06T02:21:20;5.67;;;3.37;;
14923;SDS011;7554;43.600;1.480;2023-04-06T02:23:48;5.67;;;3.37;;
14923;SDS011;7554;43.600;1.480;2023-04-06T02:26:15;5.63;;;4.03;;
14923;SDS011;7554;43.600;1.480;2023-04-06T02:28:42;7.70;;;3.80;;
14923;SDS011;7554;43.600;1.480;2023-04-06T02:31:11;7.07;;;3.63;;
14923;SDS011;7554;43.600;1.480;2023-04-06T02:33:40;4.93;;;2.97;;
14923;SDS011;7554;43.600;1.480;2023-04-06T02:36:07;9.13;;;3.70;;
14923;SDS011;7554;43.600;1.480;2023-04-06T02:38:35;4.90;;;3.23;;
14923;SDS011;7554;43.600;1.480;2023-04-06T02:41:02;5.00;;;3.20;;
14923;SDS011;7554;43.600;1.480;2023-04-06T02:43:29;3.83;;;2.90;;
14923;SDS011;7554;43.600;1.480;2023-04-06T02:45:57;4.43;;;3.00;;
14923;SDS011;7554;43.600;1.480;2023-04-06T02:48:26;6.27;;;3.37;;
14923;SDS011;7554;43.600;1.480;2023-04-06T02:50:53;5.23;;;2.70;;
14923;SDS011;7554;43.600;1.480;2023-04-06T02:53:20;5.80;;;3.33;;
14923;SDS011;7554;43.600;1.480;2023-04-06T02:55:48;5.90;;;3.73;;
14923;SDS011;7554;43.600;1.480;2023-04-06T02:58:15;4.40;;;3.23;;
14923;SDS011;7554;43.600;1.480;2023-04-06T03:00:42;5.67;;;3.47;;
14923;SDS011;7554;43.600;1.480;2023-04-06T03:03:10;7.30;;;3.57;;
14923;SDS011;7554;43.600;1.480;2023-04-06T03:05:38;5.10;;;2.87;;
14923;SDS011;7554;43.600;1.480;2023-04-06T03:08:06;5.53;;;3.10;;
14923;SDS011;7554;43.600;1.480;2023-04-06T03:10:33;4.90;;;3.00;;
14923;SDS011;7554;43.600;1.480;2023-04-06T03:13:00;3.30;;;2.57;;
14923;SDS011;7554;43.600;1.480;2023-04-06T03:15:28;5.30;;;3.07;;
14923;SDS011;7554;43.600;1.480;2023-04-06T03:17:56;3.60;;;2.70;;
14923;SDS011;7554;43.600;1.480;2023-04-06T03:20:24;4.93;;;2.97;;
14923;SDS011;7554;43.600;1.480;2023-04-06T03:22:53;2.97;;;2.40;;
14923;SDS011;7554;43.600;1.480;2023-04-06T03:25:20;4.23;;;2.63;;
14923;SDS011;7554;43.600;1.480;2023-04-06T03:27:47;4.03;;;2.87;;
14923;SDS011;7554;43.600;1.480;2023-04-06T03:30:15;3.83;;;2.60;;
14923;SDS011;7554;43.600;1.480;2023-04-06T03:32:42;4.67;;;3.00;;
14923;SDS011;7554;43.600;1.480;2023-04-06T03:35:10;3.97;;;2.87;;
14923;SDS011;7554;43.600;1.480;2023-04-06T03:37:37;4.80;;;3.03;;
14923;SDS011;7554;43.600;1.480;2023-04-06T03:40:07;4.03;;;2.87;;
14923;SDS011;7554;43.600;1.480;2023-04-06T03:42:34;3.77;;;2.70;;
14923;SDS011;7554;43.600;1.480;2023-04-06T03:45:02;6.10;;;3.17;;
14923;SDS011;7554;43.600;1.480;2023-04-06T03:47:29;4.50;;;2.90;;
14923;SDS011;7554;43.600;1.480;2023-04-06T03:49:57;4.60;;;3.00;;
14923;SDS011;7554;43.600;1.480;2023-04-06T03:52:24;3.33;;;2.67;;
14923;SDS011;7554;43.600;1.480;2023-04-06T03:54:51;4.73;;;3.10;;
14923;SDS011;7554;43.600;1.480;2023-04-06T03:57:20;4.53;;;2.67;;
14923;SDS011;7554;43.600;1.480;2023-04-06T03:59:48;4.70;;;3.07;;
14923;SDS011;7554;43.600;1.480;2023-04-06T04:02:15;4.47;;;3.00;;
14923;SDS011;7554;43.600;1.480;2023-04-06T04:04:42;4.63;;;3.17;;
14923;SDS011;7554;43.600;1.480;2023-04-06T04:07:10;4.60;;;3.27;;
14923;SDS011;7554;43.600;1.480;2023-04-06T04:09:37;9.43;;;3.57;;
14923;SDS011;7554;43.600;1.480;2023-04-06T04:12:05;5.10;;;3.30;;
14923;SDS011;7554;43.600;1.480;2023-04-06T04:14:34;6.40;;;2.80;;
14923;SDS011;7554;43.600;1.480;2023-04-06T04:17:02;3.60;;;2.77;;
14923;SDS011;7554;43.600;1.480;2023-04-06T04:19:29;6.27;;;2.90;;
14923;SDS011;7554;43.600;1.480;2023-04-06T04:21:56;4.50;;;2.90;;
14923;SDS011;7554;43.600;1.480;2023-04-06T04:24:24;6.33;;;3.57;;
14923;SDS011;7554;43.600;1.480;2023-04-06T04:26:51;4.13;;;2.80;;
14923;SDS011;7554;43.600;1.480;2023-04-06T04:29:18;4.67;;;2.90;;
14923;SDS011;7554;43.600;1.480;2023-04-06T04:31:49;4.10;;;2.53;;
14923;SDS011;7554;43.600;1.480;2023-04-06T04:34:17;5.20;;;3.03;;
14923;SDS011;7554;43.600;1.480;2023-04-06T04:36:46;8.93;;;2.73;;
14923;SDS011;7554;43.600;1.480;2023-04-06T04:39:13;4.83;;;3.00;;
14923;SDS011;7554;43.600;1.480;2023-04-06T04:41:40;4.77;;;2.60;;
14923;SDS011;7554;43.600;1.480;2023-04-06T04:44:08;4.53;;;2.80;;
14923;SDS011;7554;43.600;1.480;2023-04-06T04:46:35;3.50;;;2.70;;
14923;SDS011;7554;43.600;1.480;2023-04-06T04:49:04;3.77;;;2.90;;
14923;SDS011;7554;43.600;1.480;2023-04-06T04:51:31;4.90;;;3.17;;
14923;SDS011;7554;43.600;1.480;2023-04-06T04:53:59;2.63;;;2.43;;
14923;SDS011;7554;43.600;1.480;2023-04-06T04:56:26;5.30;;;2.67;;
14923;SDS011;7554;43.600;1.480;2023-04-06T04:58:54;3.13;;;2.33;;
14923;SDS011;7554;43.600;1.480;2023-04-06T05:01:22;3.33;;;2.00;;
14923;SDS011;7554;43.600;1.480;2023-04-06T05:03:49;3.53;;;2.50;;
14923;SDS011;7554;43.600;1.480;2023-04-06T05:06:18;3.07;;;2.17;;
14923;SDS011;7554;43.600;1.480;2023-04-06T05:08:45;4.60;;;2.53;;
14923;SDS011;7554;43.600;1.480;2023-04-06T05:11:13;4.47;;;2.80;;
14923;SDS011;7554;43.600;1.480;2023-04-06T05:13:40;5.10;;;2.80;;
14923;SDS011;7554;43.600;1.480;2023-04-06T05:16:08;5.50;;;2.77;;
14923;SDS011;7554;43.600;1.480;2023-04-06T05:18:35;5.33;;;2.47;;
14923;SDS011;7554;43.600;1.480;2023-04-06T05:21:02;5.97;;;2.87;;
14923;SDS011;7554;43.600;1.480;2023-04-06T05:23:33;3.30;;;2.43;;
14923;SDS011;7554;43.600;1.480;2023-04-06T05:26:00;3.53;;;2.60;;
14923;SDS011;7554;43.600;1.480;2023-04-06T05:28:27;4.10;;;2.67;;
14923;SDS011;7554;43.600;1.480;2023-04-06T05:30:55;4.47;;;2.53;;
14923;SDS011;7554;43.600;1.480;2023-04-06T05:33:23;3.87;;;2.90;;
14923;SDS011;7554;43.600;1.480;2023-04-06T05:35:51;4.13;;;2.90;;
14923;SDS011;7554;43.600;1.480;2023-04-06T05:38:18;3.43;;;2.70;;
14923;SDS011;7554;43.600;1.480;2023-04-06T05:40:47;5.03;;;2.57;;
14923;SDS011;7554;43.600;1.480;2023-04-06T05:43:15;3.53;;;2.47;;
14923;SDS011;7554;43.600;1.480;2023-04-06T05:45:43;3.93;;;2.80;;
14923;SDS011;7554;43.600;1.480;2023-04-06T05:48:12;4.83;;;2.93;;
14923;SDS011;7554;43.600;1.480;2023-04-06T05:50:39;4.73;;;2.70;;
14923;SDS011;7554;43.600;1.480;2023-04-06T05:53:06;4.17;;;2.67;;
14923;SDS011;7554;43.600;1.480;2023-04-06T05:55:34;4.33;;;2.60;;
14923;SDS011;7554;43.600;1.480;2023-04-06T05:58:02;3.07;;;2.40;;
14923;SDS011;7554;43.600;1.480;2023-04-06T06:00:30;4.20;;;2.97;;
14923;SDS011;7554;43.600;1.480;2023-04-06T06:02:57;4.93;;;2.60;;
14923;SDS011;7554;43.600;1.480;2023-04-06T06:05:25;3.57;;;2.40;;
14923;SDS011;7554;43.600;1.480;2023-04-06T06:07:52;3.87;;;2.23;;
14923;SDS011;7554;43.600;1.480;2023-04-06T06:10:19;5.97;;;2.47;;
14923;SDS011;7554;43.600;1.480;2023-04-06T06:12:47;4.80;;;2.20;;
14923;SDS011;7554;43.600;1.480;2023-04-06T06:15:16;5.87;;;3.00;;
14923;SDS011;7554;43.600;1.480;2023-04-06T06:17:44;3.77;;;2.37;;
14923;SDS011;7554;43.600;1.480;2023-04-06T06:20:11;3.53;;;2.30;;
14923;SDS011;7554;43.600;1.480;2023-04-06T06:22:39;5.90;;;2.90;;
14923;SDS011;7554;43.600;1.480;2023-04-06T06:25:06;4.57;;;2.87;;
14923;SDS011;7554;43.600;1.480;2023-04-06T06:27:34;4.63;;;2.97;;
14923;SDS011;7554;43.600;1.480;2023-04-06T06:30:02;7.53;;;3.33;;
14923;SDS011;7554;43.600;1.480;2023-04-06T06:32:31;5.87;;;3.37;;
14923;SDS011;7554;43.600;1.480;2023-04-06T06:34:59;6.47;;;3.77;;
14923;SDS011;7554;43.600;1.480;2023-04-06T06:37:26;5.87;;;3.70;;
14923;SDS011;7554;43.600;1.480;2023-04-06T06:39:53;7.07;;;4.47;;
14923;SDS011;7554;43.600;1.480;2023-04-06T06:42:21;9.70;;;4.30;;
14923;SDS011;7554;43.600;1.480;2023-04-06T06:44:48;9.27;;;4.60;;
14923;SDS011;7554;43.600;1.480;2023-04-06T06:47:15;7.73;;;4.27;;
14923;SDS011;7554;43.600;1.480;2023-04-06T06:49:44;6.40;;;4.03;;
14923;SDS011;7554;43.600;1.480;2023-04-06T06:52:12;6.23;;;4.30;;
14923;SDS011;7554;43.600;1.480;2023-04-06T06:54:39;9.17;;;4.63;;
14923;SDS011;7554;43.600;1.480;2023-04-06T06:57:07;9.40;;;3.83;;
14923;SDS011;7554;43.600;1.480;2023-04-06T06:59:34;8.37;;;3.73;;
14923;SDS011;7554;43.600;1.480;2023-04-06T07:02:01;8.90;;;3.83;;
14923;SDS011;7554;43.600;1.480;2023-04-06T07:04:29;6.47;;;3.50;;
14923;SDS011;7554;43.600;1.480;2023-04-06T07:06:57;9.27;;;4.03;;
14923;SDS011;7554;43.600;1.480;2023-04-06T07:09:26;7.00;;;3.83;;
14923;SDS011;7554;43.600;1.480;2023-04-06T07:11:53;7.83;;;3.60;;
14923;SDS011;7554;43.600;1.480;2023-04-06T07:14:21;12.80;;;4.43;;
14923;SDS011;7554;43.600;1.480;2023-04-06T07:16:49;6.40;;;4.10;;
14923;SDS011;7554;43.600;1.480;2023-04-06T07:19:16;4.73;;;3.87;;
14923;SDS011;7554;43.600;1.480;2023-04-06T07:21:44;7.13;;;4.07;;
14923;SDS011;7554;43.600;1.480;2023-04-06T07:24:13;8.97;;;3.57;;
14923;SDS011;7554;43.600;1.480;2023-04-06T07:26:40;5.77;;;3.80;;
14923;SDS011;7554;43.600;1.480;2023-04-06T07:29:08;7.13;;;4.20;;
14923;SDS011;7554;43.600;1.480;2023-04-06T07:31:35;4.87;;;3.40;;
14923;SDS011;7554;43.600;1.480;2023-04-06T07:34:03;6.30;;;3.30;;
14923;SDS011;7554;43.600;1.480;2023-04-06T07:36:30;5.00;;;3.60;;
14923;SDS011;7554;43.600;1.480;2023-04-06T07:38:57;13.23;;;3.73;;
14923;SDS011;7554;43.600;1.480;2023-04-06T07:41:26;6.40;;;3.60;;
14923;SDS011;7554;43.600;1.480;2023-04-06T07:43:53;4.97;;;3.30;;
14923;SDS011;7554;43.600;1.480;2023-04-06T07:46:21;7.37;;;3.57;;
14923;SDS011;7554;43.600;1.480;2023-04-06T07:48:48;4.97;;;3.50;;
14923;SDS011;7554;43.600;1.480;2023-04-06T07:51:16;5.70;;;3.80;;
14923;SDS011;7554;43.600;1.480;2023-04-06T07:53:43;14.93;;;4.23;;
14923;SDS011;7554;43.600;1.480;2023-04-06T07:56:11;7.80;;;3.73;;
14923;SDS011;7554;43.600;1.480;2023-04-06T07:58:41;6.30;;;3.73;;
14923;SDS011;7554;43.600;1.480;2023-04-06T08:01:09;8.53;;;3.40;;
14923;SDS011;7554;43.600;1.480;2023-04-06T08:03:36;7.43;;;3.43;;
14923;SDS011;7554;43.600;1.480;2023-04-06T08:06:04;8.00;;;3.33;;
14923;SDS011;7554;43.600;1.480;2023-04-06T08:08:32;8.33;;;3.63;;
14923;SDS011;7554;43.600;1.480;2023-04-06T08:10:59;7.30;;;3.50;;
14923;SDS011;7554;43.600;1.480;2023-04-06T08:13:27;9.13;;;3.67;;
14923;SDS011;7554;43.600;1.480;2023-04-06T08:15:57;11.87;;;3.60;;
14923;SDS011;7554;43.600;1.480;2023-04-06T08:18:25;8.80;;;3.43;;
14923;SDS011;7554;43.600;1.480;2023-04-06T08:20:54;8.37;;;3.20;;
14923;SDS011;7554;43.600;1.480;2023-04-06T08:23:22;8.53;;;3.70;;
14923;SDS011;7554;43.600;1.480;2023-04-06T08:25:49;9.23;;;3.37;;
14923;SDS011;7554;43.600;1.480;2023-04-06T08:28:19;7.90;;;3.70;;
14923;SDS011;7554;43.600;1.480;2023-04-06T08:30:46;7.43;;;3.60;;
14923;SDS011;7554;43.600;1.480;2023-04-06T08:33:15;9.50;;;3.23;;
14923;SDS011;7554;43.600;1.480;2023-04-06T08:35:42;5.47;;;3.10;;
14923;SDS011;7554;43.600;1.480;2023-04-06T08:38:10;5.93;;;3.37;;
14923;SDS011;7554;43.600;1.480;2023-04-06T08:40:37;5.90;;;3.00;;
14923;SDS011;7554;43.600;1.480;2023-04-06T08:43:06;9.00;;;3.73;;
14923;SDS011;7554;43.600;1.480;2023-04-06T08:45:36;7.43;;;3.00;;
14923;SDS011;7554;43.600;1.480;2023-04-06T08:48:05;7.53;;;4.17;;
14923;SDS011;7554;43.600;1.480;2023-04-06T08:50:35;7.73;;;3.40;;
14923;SDS011;7554;43.600;1.480;2023-04-06T08:53:04;6.33;;;3.20;;
14923;SDS011;7554;43.600;1.480;2023-04-06T08:55:33;6.30;;;3.93;;
14923;SDS011;7554;43.600;1.480;2023-04-06T08:58:01;8.23;;;3.37;;
14923;SDS011;7554;43.600;1.480;2023-04-06T09:00:30;7.63;;;3.50;;
14923;SDS011;7554;43.600;1.480;2023-04-06T09:02:58;9.23;;;3.67;;
14923;SDS011;7554;43.600;1.480;2023-04-06T09:05:25;8.33;;;3.53;;
14923;SDS011;7554;43.600;1.480;2023-04-06T09:07:55;6.77;;;3.03;;
14923;SDS011;7554;43.600;1.480;2023-04-06T09:10:22;4.40;;;3.30;;
14923;SDS011;7554;43.600;1.480;2023-04-06T09:12:50;5.27;;;2.87;;
14923;SDS011;7554;43.600;1.480;2023-04-06T09:15:28;7.67;;;3.10;;
14923;SDS011;7554;43.600;1.480;2023-04-06T09:17:56;5.80;;;3.07;;
14923;SDS011;7554;43.600;1.480;2023-04-06T09:20:23;4.30;;;3.00;;
14923;SDS011;7554;43.600;1.480;2023-04-06T09:22:54;6.47;;;2.90;;
14923;SDS011;7554;43.600;1.480;2023-04-06T09:25:23;7.83;;;3.60;;
14923;SDS011;7554;43.600;1.480;2023-04-06T09:27:58;13.97;;;3.43;;
14923;SDS011;7554;43.600;1.480;2023-04-06T09:30:26;7.00;;;3.30;;
14923;SDS011;7554;43.600;1.480;2023-04-06T09:32:54;4.20;;;3.23;;
14923;SDS011;7554;43.600;1.480;2023-04-06T09:35:22;10.00;;;3.37;;
14923;SDS011;7554;43.600;1.480;2023-04-06T09:37:52;5.47;;;2.83;;
14923;SDS011;7554;43.600;1.480;2023-04-06T09:40:21;4.43;;;2.80;;
14923;SDS011;7554;43.600;1.480;2023-04-06T09:42:49;3.80;;;2.60;;
14923;SDS011;7554;43.600;1.480;2023-04-06T09:45:19;4.23;;;2.80;;
14923;SDS011;7554;43.600;1.480;2023-04-06T09:47:47;6.60;;;2.80;;
14923;SDS011;7554;43.600;1.480;2023-04-06T09:50:19;2.90;;;2.60;;
14923;SDS011;7554;43.600;1.480;2023-04-06T09:52:48;4.30;;;3.03;;
14923;SDS011;7554;43.600;1.480;2023-04-06T09:55:17;10.20;;;3.30;;
14923;SDS011;7554;43.600;1.480;2023-04-06T09:57:50;4.83;;;2.43;;
14923;SDS011;7554;43.600;1.480;2023-04-06T10:00:24;5.70;;;2.57;;
14923;SDS011;7554;43.600;1.480;2023-04-06T10:02:55;5.37;;;2.40;;
14923;SDS011;7554;43.600;1.480;2023-04-06T10:05:31;3.90;;;1.87;;
14923;SDS011;7554;43.600;1.480;2023-04-06T10:08:05;4.27;;;2.30;;
14923;SDS011;7554;43.600;1.480;2023-04-06T10:10:36;3.33;;;2.40;;
14923;SDS011;7554;43.600;1.480;2023-04-06T10:13:04;5.97;;;2.40;;
14923;SDS011;7554;43.600;1.480;2023-04-06T10:15:32;4.20;;;2.50;;
14923;SDS011;7554;43.600;1.480;2023-04-06T10:18:00;4.83;;;2.13;;
14923;SDS011;7554;43.600;1.480;2023-04-06T10:20:29;4.50;;;2.13;;
14923;SDS011;7554;43.600;1.480;2023-04-06T10:23:04;3.90;;;2.20;;
14923;SDS011;7554;43.600;1.480;2023-04-06T10:25:51;5.10;;;2.33;;
14923;SDS011;7554;43.600;1.480;2023-04-06T10:28:18;4.17;;;2.43;;
14923;SDS011;7554;43.600;1.480;2023-04-06T10:30:46;3.37;;;2.00;;
14923;SDS011;7554;43.600;1.480;2023-04-06T10:33:14;7.20;;;2.10;;
14923;SDS011;7554;43.600;1.480;2023-04-06T10:35:41;4.53;;;2.03;;
14923;SDS011;7554;43.600;1.480;2023-04-06T10:38:09;3.43;;;2.17;;
14923;SDS011;7554;43.600;1.480;2023-04-06T10:40:38;3.53;;;2.00;;
14923;SDS011;7554;43.600;1.480;2023-04-06T10:43:08;3.10;;;1.83;;
14923;SDS011;7554;43.600;1.480;2023-04-06T10:45:36;2.73;;;2.03;;
14923;SDS011;7554;43.600;1.480;2023-04-06T10:48:14;3.07;;;1.97;;
14923;SDS011;7554;43.600;1.480;2023-04-06T10:50:42;8.77;;;2.00;;
14923;SDS011;7554;43.600;1.480;2023-04-06T10:53:11;2.00;;;1.73;;
14923;SDS011;7554;43.600;1.480;2023-04-06T10:55:47;4.43;;;1.80;;
14923;SDS011;7554;43.600;1.480;2023-04-06T10:58:19;3.63;;;1.70;;
14923;SDS011;7554;43.600;1.480;2023-04-06T11:00:47;3.53;;;1.97;;
14923;SDS011;7554;43.600;1.480;2023-04-06T11:03:16;2.07;;;1.43;;
14923;SDS011;7554;43.600;1.480;2023-04-06T11:05:44;3.13;;;1.60;;
14923;SDS011;7554;43.600;1.480;2023-04-06T11:08:21;2.33;;;1.43;;
14923;SDS011;7554;43.600;1.480;2023-04-06T11:10:49;4.53;;;2.17;;
14923;SDS011;7554;43.600;1.480;2023-04-06T11:13:18;3.73;;;1.93;;
14923;SDS011;7554;43.600;1.480;2023-04-06T11:15:46;3.03;;;1.90;;
14923;SDS011;7554;43.600;1.480;2023-04-06T11:18:16;2.70;;;1.90;;
14923;SDS011;7554;43.600;1.480;2023-04-06T11:20:47;4.97;;;1.73;;
14923;SDS011;7554;43.600;1.480;2023-04-06T11:23:22;2.50;;;1.57;;
14923;SDS011;7554;43.600;1.480;2023-04-06T11:25:51;5.10;;;1.90;;
14923;SDS011;7554;43.600;1.480;2023-04-06T11:28:20;3.93;;;1.57;;
14923;SDS011;7554;43.600;1.480;2023-04-06T11:30:47;3.23;;;1.83;;
14923;SDS011;7554;43.600;1.480;2023-04-06T11:33:19;3.07;;;1.60;;
14923;SDS011;7554;43.600;1.480;2023-04-06T11:35:48;3.07;;;1.73;;
14923;SDS011;7554;43.600;1.480;2023-04-06T11:38:16;4.13;;;1.70;;
14923;SDS011;7554;43.600;1.480;2023-04-06T11:40:46;4.13;;;1.83;;
14923;SDS011;7554;43.600;1.480;2023-04-06T11:43:13;3.33;;;1.53;;
14923;SDS011;7554;43.600;1.480;2023-04-06T11:45:42;1.87;;;1.40;;
14923;SDS011;7554;43.600;1.480;2023-04-06T11:48:17;2.60;;;1.33;;
14923;SDS011;7554;43.600;1.480;2023-04-06T11:50:47;3.40;;;1.80;;
14923;SDS011;7554;43.600;1.480;2023-04-06T11:53:14;2.93;;;1.70;;
14923;SDS011;7554;43.600;1.480;2023-04-06T11:55:43;3.17;;;1.67;;
14923;SDS011;7554;43.600;1.480;2023-04-06T11:58:12;2.73;;;1.60;;
14923;SDS011;7554;43.600;1.480;2023-04-06T12:00:40;2.13;;;1.40;;
14923;SDS011;7554;43.600;1.480;2023-04-06T12:03:11;2.50;;;1.40;;
14923;SDS011;7554;43.600;1.480;2023-04-06T12:05:39;2.87;;;1.10;;
14923;SDS011;7554;43.600;1.480;2023-04-06T12:08:06;3.00;;;1.00;;
14923;SDS011;7554;43.600;1.480;2023-04-06T12:10:34;1.70;;;1.10;;
14923;SDS011;7554;43.600;1.480;2023-04-06T12:13:01;1.70;;;1.20;;
14923;SDS011;7554;43.600;1.480;2023-04-06T12:15:29;3.10;;;1.40;;
14923;SDS011;7554;43.600;1.480;2023-04-06T12:17:56;1.87;;;1.00;;
14923;SDS011;7554;43.600;1.480;2023-04-06T12:20:25;1.40;;;1.10;;
14923;SDS011;7554;43.600;1.480;2023-04-06T12:22:52;1.43;;;0.90;;
14923;SDS011;7554;43.600;1.480;2023-04-06T12:25:20;1.93;;;0.90;;
14923;SDS011;7554;43.600;1.480;2023-04-06T12:27:47;1.97;;;1.10;;
14923;SDS011;7554;43.600;1.480;2023-04-06T12:30:15;2.00;;;1.00;;
14923;SDS011;7554;43.600;1.480;2023-04-06T12:32:42;2.60;;;0.90;;
14923;SDS011;7554;43.600;1.480;2023-04-06T12:35:10;1.80;;;1.10;;
14923;SDS011;7554;43.600;1.480;2023-04-06T12:37:42;5.20;;;1.40;;
14923;SDS011;7554;43.600;1.480;2023-04-06T12:40:10;1.33;;;0.97;;
14923;SDS011;7554;43.600;1.480;2023-04-06T12:42:38;1.10;;;0.97;;
14923;SDS011;7554;43.600;1.480;2023-04-06T12:45:07;1.20;;;0.83;;
14923;SDS011;7554;43.600;1.480;2023-04-06T12:47:35;1.73;;;1.03;;
14923;SDS011;7554;43.600;1.480;2023-04-06T12:50:03;2.13;;;0.90;;
14923;SDS011;7554;43.600;1.480;2023-04-06T12:52:31;1.87;;;1.20;;
14923;SDS011;7554;43.600;1.480;2023-04-06T12:55:02;2.00;;;1.10;;
14923;SDS011;7554;43.600;1.480;2023-04-06T12:57:30;1.20;;;0.80;;
14923;SDS011;7554;43.600;1.480;2023-04-06T12:59:57;1.30;;;0.90;;
14923;SDS011;7554;43.600;1.480;2023-04-06T13:02:25;4.03;;;1.37;;
14923;SDS011;7554;43.600;1.480;2023-04-06T13:04:52;6.47;;;1.40;;
14923;SDS011;7554;43.600;1.480;2023-04-06T13:07:20;3.97;;;1.00;;
14923;SDS011;7554;43.600;1.480;2023-04-06T13:09:47;3.70;;;1.13;;
14923;SDS011;7554;43.600;1.480;2023-04-06T13:12:18;1.40;;;0.90;;
14923;SDS011;7554;43.600;1.480;2023-04-06T13:14:46;2.03;;;0.90;;
14923;SDS011;7554;43.600;1.480;2023-04-06T13:17:16;2.10;;;0.97;;
14923;SDS011;7554;43.600;1.480;2023-04-06T13:19:44;4.07;;;1.00;;
14923;SDS011;7554;43.600;1.480;2023-04-06T13:22:11;1.07;;;0.80;;
14923;SDS011;7554;43.600;1.480;2023-04-06T13:24:38;1.13;;;1.00;;
14923;SDS011;7554;43.600;1.480;2023-04-06T13:27:06;1.53;;;0.90;;
14923;SDS011;7554;43.600;1.480;2023-04-06T13:29:34;2.00;;;0.90;;
14923;SDS011;7554;43.600;1.480;2023-04-06T13:32:02;3.13;;;0.90;;
14923;SDS011;7554;43.600;1.480;2023-04-06T13:34:30;1.70;;;1.10;;
14923;SDS011;7554;43.600;1.480;2023-04-06T13:36:57;2.17;;;1.10;;
14923;SDS011;7554;43.600;1.480;2023-04-06T13:39:24;1.40;;;0.97;;
14923;SDS011;7554;43.600;1.480;2023-04-06T13:41:53;6.13;;;1.10;;
14923;SDS011;7554;43.600;1.480;2023-04-06T13:44:21;1.20;;;0.83;;
14923;SDS011;7554;43.600;1.480;2023-04-06T13:46:50;2.37;;;0.90;;
14923;SDS011;7554;43.600;1.480;2023-04-06T13:49:18;1.23;;;0.90;;
14923;SDS011;7554;43.600;1.480;2023-04-06T13:51:46;2.87;;;1.37;;
14923;SDS011;7554;43.600;1.480;2023-04-06T13:54:13;1.10;;;0.90;;
14923;SDS011;7554;43.600;1.480;2023-04-06T13:56:41;1.30;;;0.90;;
14923;SDS011;7554;43.600;1.480;2023-04-06T13:59:08;0.90;;;0.77;;
14923;SDS011;7554;43.600;1.480;2023-04-06T14:01:35;1.40;;;0.83;;
14923;SDS011;7554;43.600;1.480;2023-04-06T14:04:05;2.70;;;0.97;;
14923;SDS011;7554;43.600;1.480;2023-04-06T14:06:32;1.30;;;0.90;;
14923;SDS011;7554;43.600;1.480;2023-04-06T14:09:00;1.20;;;0.90;;
14923;SDS011;7554;43.600;1.480;2023-04-06T14:11:27;2.93;;;0.90;;
14923;SDS011;7554;43.600;1.480;2023-04-06T14:13:54;3.10;;;0.93;;
14923;SDS011;7554;43.600;1.480;2023-04-06T14:16:23;1.80;;;1.10;;
14923;SDS011;7554;43.600;1.480;2023-04-06T14:18:51;2.00;;;1.00;;
14923;SDS011;7554;43.600;1.480;2023-04-06T14:21:20;1.93;;;0.90;;
14923;SDS011;7554;43.600;1.480;2023-04-06T14:23:47;1.60;;;0.90;;
14923;SDS011;7554;43.600;1.480;2023-04-06T14:26:14;1.37;;;1.00;;
14923;SDS011;7554;43.600;1.480;2023-04-06T14:28:42;2.23;;;0.90;;
14923;SDS011;7554;43.600;1.480;2023-04-06T14:31:12;4.60;;;0.90;;
14923;SDS011;7554;43.600;1.480;2023-04-06T14:33:41;1.10;;;0.70;;
14923;SDS011;7554;43.600;1.480;2023-04-06T14:36:09;2.07;;;0.80;;
14923;SDS011;7554;43.600;1.480;2023-04-06T14:38:38;1.83;;;0.90;;
14923;SDS011;7554;43.600;1.480;2023-04-06T14:41:05;1.80;;;0.90;;
14923;SDS011;7554;43.600;1.480;2023-04-06T14:43:33;2.17;;;0.97;;
14923;SDS011;7554;43.600;1.480;2023-04-06T14:46:00;1.07;;;0.70;;
14923;SDS011;7554;43.600;1.480;2023-04-06T14:48:28;2.53;;;0.90;;
14923;SDS011;7554;43.600;1.480;2023-04-06T14:50:55;1.47;;;1.03;;
14923;SDS011;7554;43.600;1.480;2023-04-06T14:53:23;1.83;;;0.97;;
14923;SDS011;7554;43.600;1.480;2023-04-06T14:55:52;1.23;;;0.80;;
14923;SDS011;7554;43.600;1.480;2023-04-06T14:58:20;2.20;;;0.80;;
14923;SDS011;7554;43.600;1.480;2023-04-06T15:00:54;0.90;;;0.67;;
14923;SDS011;7554;43.600;1.480;2023-04-06T15:03:23;1.27;;;0.73;;
14923;SDS011;7554;43.600;1.480;2023-04-06T15:05:51;5.47;;;0.67;;